Time;durP1;ratioP1;P1;durP2;ratioP2;P2;SDS_P1;SDS_P2;PMS_P1;PMS_P2;Temp;Humidity;BMP_temperature;BMP_pressure;BME280_temperature;BME280_humidity;BME280_pressure;Samples;Min_cycle;Max_cycle;Signal;HPM_P1;HPM_P2
2023/05/08 00:00:29;;;;;;;60.90;42.30;;;16.10;99.90;;;;;;5056573;28;20079;-61
2023/05/08 00:02:55;;;;;;;63.58;43.38;;;16.10;99.90;;;;;;5056606;28;20408;-61
2023/05/08 00:05:21;;;;;;;62.58;43.92;;;16.00;99.90;;;;;;5072230;28;20130;-61
2023/05/08 00:07:48;;;;;;;63.95;44.28;;;16.00;99.90;;;;;;5056436;28;20040;-60
2023/05/08 00:10:14;;;;;;;65.65;43.25;;;15.90;99.90;;;;;;5056707;28;20029;-60
2023/05/08 00:12:40;;;;;;;67.07;44.53;;;15.80;99.90;;;;;;5055629;28;20036;-60
2023/05/08 00:15:06;;;;;;;59.80;43.42;;;15.80;99.90;;;;;;5059998;28;20029;-62
2023/05/08 00:17:32;;;;;;;64.93;44.83;;;15.80;99.90;;;;;;5076156;28;20056;-60
2023/05/08 00:19:58;;;;;;;71.10;45.97;;;15.80;99.90;;;;;;5060170;28;20069;-60
2023/05/08 00:22:24;;;;;;;74.03;48.40;;;15.90;99.90;;;;;;5076106;28;20400;-61
2023/05/08 00:24:50;;;;;;;73.03;47.53;;;15.90;99.90;;;;;;5060728;28;20029;-60
2023/05/08 00:27:16;;;;;;;72.88;46.40;;;15.90;99.90;;;;;;5060047;28;20029;-60
2023/05/08 00:29:42;;;;;;;67.95;44.88;;;15.80;99.90;;;;;;5076053;28;20044;-62
2023/05/08 00:32:08;;;;;;;72.00;47.38;;;15.70;99.90;;;;;;5060081;28;20400;-61
2023/05/08 00:34:34;;;;;;;72.63;47.20;;;15.80;99.90;;;;;;5059942;28;20039;-62
2023/05/08 00:37:01;;;;;;;82.13;50.00;;;15.90;99.90;;;;;;5059791;28;20029;-63
2023/05/08 00:39:27;;;;;;;79.10;50.40;;;15.90;99.90;;;;;;5059977;28;20040;-61
2023/05/08 00:41:53;;;;;;;76.65;49.00;;;15.80;99.90;;;;;;5060116;28;20029;-65
2023/05/08 00:44:19;;;;;;;82.43;50.88;;;15.90;99.90;;;;;;5060005;28;20029;-64
2023/05/08 00:46:45;;;;;;;87.97;50.72;;;15.80;99.90;;;;;;5059737;28;20044;-64
2023/05/08 00:49:13;;;;;;;85.55;51.83;;;15.80;99.90;;;;;;5075689;28;20037;-64
2023/05/08 00:51:53;;;;;;;84.75;50.65;;;15.70;99.90;;;;;;5058831;28;20135;-63
2023/05/08 00:54:19;;;;;;;86.63;52.40;;;15.60;99.90;;;;;;5059581;28;20045;-61
2023/05/08 00:56:45;;;;;;;82.30;50.33;;;15.60;99.90;;;;;;5059510;28;20037;-62
2023/05/08 00:59:14;;;;;;;87.07;51.28;;;15.50;99.90;;;;;;5059481;28;20029;-62
2023/05/08 01:01:42;;;;;;;83.40;51.13;;;15.50;99.90;;;;;;5059473;28;20257;-64
2023/05/08 01:04:08;;;;;;;92.13;52.53;;;15.40;99.90;;;;;;5059223;28;20045;-61
2023/05/08 01:06:35;;;;;;;94.22;52.33;;;15.30;99.90;;;;;;5075316;28;20029;-62
2023/05/08 01:09:02;;;;;;;87.25;51.05;;;15.30;99.90;;;;;;5058474;28;20025;-61
2023/05/08 01:11:54;;;;;;;82.55;49.15;;;15.30;99.90;;;;;;5059311;28;20112;-61
2023/05/08 01:14:43;;;;;;;87.75;50.97;;;15.30;99.90;;;;;;5075210;28;20033;-61
2023/05/08 01:17:10;;;;;;;86.03;48.85;;;15.30;99.90;;;;;;5059381;28;20396;-62
2023/05/08 01:19:57;;;;;;;82.07;50.15;;;15.30;99.90;;;;;;5074989;28;20031;-61
2023/05/08 01:22:46;;;;;;;89.03;49.72;;;15.30;99.90;;;;;;5059218;28;20021;-62
2023/05/08 01:25:33;;;;;;;93.55;53.28;;;15.30;99.90;;;;;;5058154;28;20071;-61
2023/05/08 01:28:29;;;;;;;98.82;53.65;;;15.30;99.90;;;;;;5058922;28;20104;-62
2023/05/08 01:31:18;;;;;;;100.78;55.33;;;15.30;99.90;;;;;;5058992;28;20029;-61
2023/05/08 01:33:50;;;;;;;106.05;56.38;;;15.20;99.90;;;;;;5058982;28;20028;-61
2023/05/08 01:36:59;;;;;;;98.20;53.70;;;15.20;99.90;;;;;;5074656;28;20290;-61
2023/05/08 01:39:49;;;;;;;101.38;56.17;;;15.20;99.90;;;;;;4962630;28;20410;-61
2023/05/08 01:42:25;;;;;;;103.65;56.80;;;15.10;99.90;;;;;;5058720;28;20285;-62
2023/05/08 01:45:03;;;;;;;103.38;54.78;;;15.10;99.90;;;;;;5059316;28;20151;-62
2023/05/08 01:47:34;;;;;;;105.10;56.40;;;15.10;99.90;;;;;;5057935;28;20029;-62
2023/05/08 01:50:08;;;;;;;111.72;56.65;;;15.00;99.90;;;;;;5057761;28;20039;-62
2023/05/08 01:52:49;;;;;;;110.05;57.42;;;15.00;99.90;;;;;;5058587;28;20396;-62
2023/05/08 01:55:30;;;;;;;121.05;61.22;;;15.00;99.90;;;;;;5074334;28;20029;-62
2023/05/08 01:57:58;;;;;;;118.95;61.15;;;15.10;99.90;;;;;;5074202;28;20033;-63
2023/05/08 02:00:27;;;;;;;123.18;62.75;;;15.10;99.90;;;;;;5057493;28;20025;-62
2023/05/08 02:02:54;;;;;;;115.80;59.35;;;15.10;99.90;;;;;;5058347;28;20098;-62
2023/05/08 02:05:21;;;;;;;114.43;59.85;;;14.90;99.90;;;;;;5058153;28;20049;-62
2023/05/08 02:07:48;;;;;;;111.32;58.00;;;14.90;99.90;;;;;;5058139;28;20066;-61
2023/05/08 02:10:16;;;;;;;118.43;60.35;;;14.80;99.90;;;;;;5058530;28;20339;-61
2023/05/08 02:12:43;;;;;;;115.93;57.33;;;14.80;99.90;;;;;;5057307;28;20033;-61
2023/05/08 02:15:12;;;;;;;107.80;56.75;;;14.80;99.90;;;;;;5058094;28;20415;-62
2023/05/08 02:17:40;;;;;;;103.47;55.25;;;14.60;99.90;;;;;;5073820;28;20037;-62
2023/05/08 02:20:13;;;;;;;108.60;57.60;;;14.60;99.90;;;;;;5058043;28;20043;-62
2023/05/08 02:22:43;;;;;;;113.88;57.08;;;14.60;99.90;;;;;;5073722;28;20055;-62
2023/05/08 02:25:13;;;;;;;113.95;58.97;;;14.70;99.90;;;;;;5057358;28;20048;-61
2023/05/08 02:27:42;;;;;;;109.53;56.65;;;14.70;99.90;;;;;;5057792;28;20114;-61
2023/05/08 02:30:14;;;;;;;123.53;59.13;;;14.70;99.90;;;;;;5057001;28;20059;-61
2023/05/08 02:32:44;;;;;;;110.80;57.33;;;14.70;99.90;;;;;;5073680;28;20025;-61
2023/05/08 02:35:16;;;;;;;124.05;58.60;;;14.70;99.90;;;;;;5073490;28;20029;-62
2023/05/08 02:37:50;;;;;;;107.88;55.47;;;14.70;99.90;;;;;;5056530;28;20064;-62
2023/05/08 02:40:17;;;;;;;103.70;55.40;;;14.60;99.90;;;;;;5058063;28;20068;-62
2023/05/08 02:42:45;;;;;;;108.78;54.67;;;14.60;99.90;;;;;;5073406;28;20029;-61
2023/05/08 02:45:12;;;;;;;108.40;57.25;;;14.60;99.90;;;;;;5056849;28;20035;-61
2023/05/08 02:47:42;;;;;;;110.40;56.53;;;14.70;99.90;;;;;;5056718;28;20079;-61
2023/05/08 02:50:31;;;;;;;111.40;54.72;;;14.70;99.90;;;;;;5073421;28;20036;-61
2023/05/08 02:53:03;;;;;;;106.78;55.88;;;14.70;99.90;;;;;;5057486;28;20341;-61
2023/05/08 02:55:39;;;;;;;108.05;55.95;;;14.60;99.90;;;;;;5073520;28;20033;-61
2023/05/08 02:58:10;;;;;;;120.75;59.85;;;14.60;99.90;;;;;;5073014;28;20025;-61
2023/05/08 03:00:45;;;;;;;114.22;59.45;;;14.70;99.90;;;;;;5073115;28;20032;-61
2023/05/08 03:03:32;;;;;;;109.57;55.05;;;14.70;99.90;;;;;;5056932;28;20052;-61
2023/05/08 03:06:02;;;;;;;96.30;52.90;;;14.60;99.90;;;;;;5057501;28;20391;-62
2023/05/08 03:08:34;;;;;;;94.20;51.90;;;14.40;99.90;;;;;;5056638;28;20033;-61
2023/05/08 03:11:15;;;;;;;94.60;49.45;;;14.20;99.90;;;;;;5073057;28;20033;-60
2023/05/08 03:13:43;;;;;;;83.30;47.45;;;14.10;99.90;;;;;;5057049;28;20292;-62
2023/05/08 03:16:23;;;;;;;84.82;47.05;;;14.10;99.90;;;;;;5072743;28;20315;-61
2023/05/08 03:18:56;;;;;;;79.78;46.40;;;14.10;99.90;;;;;;5057291;28;20063;-61
2023/05/08 03:21:27;;;;;;;89.50;47.35;;;14.20;99.90;;;;;;5056836;28;20108;-61
2023/05/08 03:23:55;;;;;;;82.80;47.40;;;14.20;99.90;;;;;;5072735;28;20025;-61
2023/05/08 03:26:21;;;;;;;94.68;49.53;;;14.20;99.90;;;;;;5056279;28;20044;-60
2023/05/08 03:28:48;;;;;;;90.53;48.47;;;14.20;99.90;;;;;;5055954;28;20123;-61
2023/05/08 03:31:20;;;;;;;145.32;92.28;;;14.20;99.90;;;;;;5055769;28;20036;-61
2023/05/08 03:33:49;;;;;;;93.15;49.80;;;14.10;99.90;;;;;;5072408;28;20029;-61
2023/05/08 03:36:16;;;;;;;84.57;46.55;;;14.00;99.90;;;;;;5056685;28;20036;-63
2023/05/08 03:38:42;;;;;;;84.05;45.22;;;13.80;99.90;;;;;;5056868;28;20036;-62
2023/05/08 03:41:08;;;;;;;81.43;47.40;;;13.80;99.90;;;;;;5056651;28;20029;-61
2023/05/08 03:43:36;;;;;;;82.03;45.38;;;13.70;99.90;;;;;;5072687;28;20029;-62
2023/05/08 03:46:05;;;;;;;86.65;47.33;;;13.60;99.90;;;;;;5055973;28;20033;-61
2023/05/08 03:48:37;;;;;;;83.07;48.58;;;13.50;99.90;;;;;;5056228;28;20048;-61
2023/05/08 03:51:04;;;;;;;88.00;47.05;;;13.60;99.90;;;;;;5076762;28;20414;-62
2023/05/08 03:53:32;;;;;;;90.68;46.75;;;13.60;99.90;;;;;;5043890;28;20029;-62
2023/05/08 03:55:59;;;;;;;88.97;48.97;;;13.70;99.90;;;;;;5060076;28;20036;-62
2023/05/08 03:58:40;;;;;;;96.95;48.10;;;13.80;99.90;;;;;;5059924;28;20036;-62
2023/05/08 04:01:24;;;;;;;89.05;47.67;;;13.80;99.90;;;;;;5060587;28;20025;-62
2023/05/08 04:04:08;;;;;;;93.50;47.67;;;13.90;99.90;;;;;;5076344;28;20099;-62
2023/05/08 04:06:48;;;;;;;93.53;48.35;;;14.00;99.90;;;;;;5076390;28;20033;-61
2023/05/08 04:09:26;;;;;;;87.90;47.78;;;14.00;99.90;;;;;;5076203;28;20052;-61
2023/05/08 04:12:01;;;;;;;104.28;51.85;;;14.10;99.90;;;;;;5076037;28;20277;-62
2023/05/08 04:14:33;;;;;;;89.63;46.70;;;14.20;99.90;;;;;;5075760;28;20380;-62
2023/05/08 04:17:08;;;;;;;92.05;47.38;;;14.20;99.90;;;;;;5075952;28;20056;-62
2023/05/08 04:19:41;;;;;;;85.63;48.15;;;14.30;99.90;;;;;;5060301;28;20033;-61
2023/05/08 04:22:09;;;;;;;88.05;48.00;;;14.30;99.90;;;;;;5060376;28;20041;-63
2023/05/08 04:24:41;;;;;;;85.93;46.53;;;14.40;99.90;;;;;;5075917;28;20045;-62
2023/05/08 04:27:08;;;;;;;85.68;46.33;;;14.40;99.90;;;;;;5060212;28;20037;-62
2023/05/08 04:29:35;;;;;;;80.03;44.63;;;14.40;99.90;;;;;;5059228;28;20025;-62
2023/05/08 04:32:04;;;;;;;80.38;45.92;;;14.50;99.90;;;;;;5059107;28;20028;-63
2023/05/08 04:34:31;;;;;;;87.47;48.13;;;14.60;99.90;;;;;;5059948;28;20033;-63
2023/05/08 04:36:58;;;;;;;85.53;45.20;;;14.60;99.90;;;;;;5059060;28;20102;-63
2023/05/08 04:39:23;;;;;;;85.90;45.95;;;14.60;99.90;;;;;;5075816;28;20060;-63
2023/05/08 04:41:51;;;;;;;95.80;48.38;;;14.70;99.90;;;;;;5059188;28;20392;-63
2023/05/08 04:44:17;;;;;;;94.78;48.88;;;14.80;99.90;;;;;;5059119;28;20032;-63
2023/05/08 04:46:43;;;;;;;95.78;48.33;;;15.00;99.90;;;;;;5075612;28;20025;-65
2023/05/08 04:49:09;;;;;;;102.38;50.72;;;14.90;99.90;;;;;;5075688;28;20041;-65
2023/05/08 04:51:35;;;;;;;105.25;49.75;;;15.00;99.90;;;;;;5059761;28;20037;-64
2023/05/08 04:54:01;;;;;;;105.18;50.47;;;14.90;99.90;;;;;;5058871;28;20443;-63
2023/05/08 04:56:28;;;;;;;95.65;47.97;;;14.80;99.90;;;;;;5058861;28;20289;-63
2023/05/08 04:58:54;;;;;;;112.35;50.92;;;14.70;99.90;;;;;;5059563;28;20040;-67
2023/05/08 05:01:20;;;;;;;108.22;49.70;;;14.90;99.90;;;;;;5058237;28;20092;-64
2023/05/08 05:03:46;;;;;;;113.57;52.08;;;15.10;99.90;;;;;;5075093;28;20092;-66
2023/05/08 05:06:12;;;;;;;109.72;50.28;;;15.10;99.90;;;;;;5058572;28;20028;-65
2023/05/08 05:08:38;;;;;;;112.43;50.08;;;15.00;99.90;;;;;;5058548;28;20033;-66
2023/05/08 05:11:05;;;;;;;102.35;49.75;;;14.90;99.90;;;;;;5075364;28;20106;-65
2023/05/08 05:13:31;;;;;;;101.38;47.63;;;14.90;99.90;;;;;;5058509;28;20393;-64
2023/05/08 05:15:58;;;;;;;109.90;49.92;;;14.80;99.90;;;;;;5075096;28;20047;-66
2023/05/08 05:18:24;;;;;;;105.35;48.55;;;14.80;99.90;;;;;;5059068;28;20039;-65
2023/05/08 05:20:52;;;;;;;107.07;49.70;;;14.80;99.90;;;;;;5075049;28;20064;-63
2023/05/08 05:23:19;;;;;;;101.15;47.58;;;14.80;99.90;;;;;;5074983;28;20033;-65
2023/05/08 05:25:45;;;;;;;112.20;48.83;;;14.70;99.90;;;;;;5058140;28;20029;-67
2023/05/08 05:28:12;;;;;;;102.22;48.85;;;15.00;99.90;;;;;;5058393;28;20033;-66
2023/05/08 05:30:38;;;;;;;109.63;48.55;;;14.90;99.90;;;;;;5058637;28;20033;-66
2023/05/08 05:33:03;;;;;;;117.07;51.15;;;14.90;99.90;;;;;;5074797;28;20029;-66
2023/05/08 05:35:30;;;;;;;117.97;51.65;;;14.90;99.90;;;;;;5041573;28;20370;-67
2023/05/08 05:37:56;;;;;;;118.22;51.17;;;15.00;99.90;;;;;;5058015;28;20033;-66
2023/05/08 05:40:22;;;;;;;114.80;50.83;;;14.90;99.90;;;;;;5074791;28;20270;-64
2023/05/08 05:42:49;;;;;;;120.85;49.17;;;14.80;99.90;;;;;;5058571;28;20296;-65
2023/05/08 05:45:16;;;;;;;113.65;48.60;;;14.90;99.90;;;;;;5041539;28;20037;-64
2023/05/08 05:47:49;;;;;;;108.22;47.78;;;14.80;99.90;;;;;;5074500;28;20304;-66
2023/05/08 05:50:17;;;;;;;124.57;49.85;;;14.60;99.90;;;;;;5074745;28;20278;-66
2023/05/08 05:52:43;;;;;;;119.10;49.53;;;14.70;99.90;;;;;;5074466;28;20037;-66
2023/05/08 05:55:10;;;;;;;125.60;51.22;;;14.80;99.90;;;;;;5057562;28;20117;-67
2023/05/08 05:57:35;;;;;;;132.95;52.65;;;14.90;99.90;;;;;;5058266;28;20033;-64
2023/05/08 06:00:03;;;;;;;126.65;51.28;;;14.90;99.90;;;;;;5057708;28;20040;-66
2023/05/08 06:02:29;;;;;;;130.18;49.35;;;14.70;99.90;;;;;;5058329;28;20087;-65
2023/05/08 06:04:55;;;;;;;131.90;52.38;;;14.80;99.90;;;;;;5074012;28;20040;-66
2023/05/08 06:07:21;;;;;;;122.97;49.42;;;14.90;99.90;;;;;;5058211;28;20052;-66
2023/05/08 06:09:47;;;;;;;121.90;49.20;;;15.00;99.90;;;;;;5058070;28;20415;-66
2023/05/08 06:12:13;;;;;;;125.20;50.03;;;14.80;99.90;;;;;;5040208;28;20308;-67
2023/05/08 06:14:39;;;;;;;123.78;47.83;;;14.90;99.90;;;;;;5057244;28;20037;-66
2023/05/08 06:17:05;;;;;;;128.63;47.40;;;14.90;99.90;;;;;;5057135;28;20024;-67
2023/05/08 06:19:31;;;;;;;139.48;48.50;;;15.00;99.90;;;;;;5073870;28;20029;-66
2023/05/08 06:21:57;;;;;;;105.10;44.28;;;15.10;99.90;;;;;;5057943;28;20384;-65
2023/05/08 06:24:22;;;;;;;96.07;40.65;;;15.00;99.90;;;;;;5057241;28;20029;-63
2023/05/08 06:26:48;;;;;;;102.97;43.05;;;15.00;99.90;;;;;;5073665;28;20040;-64
2023/05/08 06:29:14;;;;;;;94.88;41.53;;;15.00;99.90;;;;;;5073790;28;20155;-64
2023/05/08 06:31:40;;;;;;;95.68;41.15;;;14.60;99.90;;;;;;5057718;28;20057;-63
2023/05/08 06:34:06;;;;;;;85.88;37.63;;;14.40;99.90;;;;;;5057672;28;20041;-64
2023/05/08 06:36:31;;;;;;;94.80;39.75;;;14.40;99.90;;;;;;5057654;28;20040;-63
2023/05/08 06:38:57;;;;;;;83.85;37.05;;;14.70;99.90;;;;;;5056822;28;20033;-63
2023/05/08 06:41:23;;;;;;;85.88;37.83;;;14.90;99.90;;;;;;5056829;28;20021;-62
2023/05/08 06:43:49;;;;;;;83.85;36.10;;;15.30;99.90;;;;;;5057605;28;20098;-63
2023/05/08 06:46:15;;;;;;;74.75;33.60;;;15.80;99.90;;;;;;5057584;28;20301;-63
2023/05/08 06:48:40;;;;;;;83.55;35.30;;;15.90;99.90;;;;;;5057488;28;20021;-63
2023/05/08 06:51:06;;;;;;;84.15;37.40;;;15.80;99.90;;;;;;5057720;28;20077;-63
2023/05/08 06:53:32;;;;;;;74.35;33.65;;;15.90;99.90;;;;;;5057260;28;20059;-63
2023/05/08 06:55:58;;;;;;;80.93;35.72;;;16.10;99.90;;;;;;5057356;28;20041;-64
2023/05/08 06:58:24;;;;;;;84.15;38.72;;;16.30;99.90;;;;;;5057140;28;20397;-63
2023/05/08 07:00:50;;;;;;;86.00;37.83;;;16.20;99.90;;;;;;5057127;28;20029;-63
2023/05/08 07:03:15;;;;;;;97.60;41.33;;;16.50;99.90;;;;;;5057006;28;20028;-63
2023/05/08 07:05:41;;;;;;;88.40;40.00;;;16.70;99.90;;;;;;5057160;28;20046;-63
2023/05/08 07:08:07;;;;;;;105.60;44.17;;;16.80;99.90;;;;;;5057294;28;20029;-62
2023/05/08 07:10:33;;;;;;;110.70;46.78;;;16.80;99.90;;;;;;5057046;28;20037;-63
2023/05/08 07:12:59;;;;;;;100.40;45.53;;;17.10;99.90;;;;;;5057081;28;20304;-62
2023/05/08 07:15:25;;;;;;;101.60;45.72;;;17.30;99.90;;;;;;5057039;28;20304;-62
2023/05/08 07:17:50;;;;;;;99.47;46.63;;;17.40;99.90;;;;;;5056898;28;20041;-63
2023/05/08 07:20:16;;;;;;;98.65;44.58;;;17.30;99.90;;;;;;5056899;28;20033;-63
2023/05/08 07:22:42;;;;;;;94.97;44.88;;;17.50;99.90;;;;;;5056490;28;20029;-62
2023/05/08 07:25:08;;;;;;;101.25;46.25;;;17.60;99.90;;;;;;5056412;28;20024;-63
2023/05/08 07:27:34;;;;;;;111.22;47.10;;;17.70;99.90;;;;;;5057040;28;20053;-63
2023/05/08 07:30:03;;;;;;;115.05;47.75;;;17.30;99.90;;;;;;5056834;28;20320;-62
2023/05/08 07:32:30;;;;;;;116.82;50.00;;;17.20;99.90;;;;;;5056565;28;20114;-62
2023/05/08 07:34:56;;;;;;;117.85;50.17;;;16.70;99.90;;;;;;5039726;28;20108;-62
2023/05/08 07:37:22;;;;;;;107.10;48.78;;;16.60;99.90;;;;;;5056536;28;20136;-67
2023/05/08 07:39:48;;;;;;;98.88;45.15;;;16.70;99.90;;;;;;5056738;28;20041;-65
2023/05/08 07:42:13;;;;;;;97.45;45.35;;;16.80;99.90;;;;;;5072543;28;20094;-64
2023/05/08 07:44:39;;;;;;;99.00;46.53;;;16.90;99.90;;;;;;5057232;28;20388;-64
2023/05/08 07:47:05;;;;;;;97.93;47.70;;;17.00;99.90;;;;;;5056441;28;20082;-66
2023/05/08 07:49:31;;;;;;;93.15;46.33;;;16.80;99.90;;;;;;5056440;28;20037;-67
2023/05/08 07:51:57;;;;;;;109.57;50.88;;;16.90;99.90;;;;;;5055793;28;20434;-67
2023/05/08 07:54:22;;;;;;;106.20;50.72;;;17.10;99.90;;;;;;5056303;28;20036;-67
2023/05/08 07:56:48;;;;;;;101.63;49.92;;;17.00;99.90;;;;;;5038959;28;20098;-64
2023/05/08 07:59:14;;;;;;;106.15;50.80;;;16.90;99.90;;;;;;5056612;28;20142;-64
2023/05/08 08:01:45;;;;;;;96.93;47.88;;;17.40;99.90;;;;;;5055704;28;20036;-66
2023/05/08 08:04:12;;;;;;;98.93;49.92;;;17.60;99.90;;;;;;5056297;28;20049;-66
2023/05/08 08:06:38;;;;;;;80.60;43.45;;;18.20;99.90;;;;;;5056349;28;20424;-65
2023/05/08 08:09:04;;;;;;;78.07;42.05;;;18.00;97.40;;;;;;5055519;28;20140;-65
2023/05/08 08:11:30;;;;;;;85.65;44.95;;;17.10;99.90;;;;;;5072202;28;20037;-63
2023/05/08 08:13:56;;;;;;;89.93;47.17;;;17.30;99.90;;;;;;5055446;28;20036;-67
2023/05/08 08:16:22;;;;;;;82.20;43.05;;;17.80;99.90;;;;;;5072867;28;20033;-64
2023/05/08 08:18:48;;;;;;;87.60;46.88;;;18.00;99.90;;;;;;5056228;28;20029;-64
2023/05/08 08:21:13;;;;;;;84.80;44.03;;;18.20;99.40;;;;;;5072163;28;20135;-63
2023/05/08 08:23:39;;;;;;;84.53;45.22;;;17.90;99.90;;;;;;5056313;28;20025;-66
2023/05/08 08:26:05;;;;;;;80.65;43.55;;;18.00;99.90;;;;;;5072626;28;20098;-66
2023/05/08 08:28:31;;;;;;;79.80;43.08;;;18.10;99.90;;;;;;5056390;28;20029;-65
2023/05/08 08:30:57;;;;;;;82.20;44.85;;;18.60;99.90;;;;;;5055377;28;20044;-66
2023/05/08 08:33:23;;;;;;;86.38;46.20;;;18.80;96.80;;;;;;5055445;28;20033;-67
2023/05/08 08:35:49;;;;;;;82.70;46.15;;;18.70;96.00;;;;;;5058525;28;20052;-65
2023/05/08 08:38:15;;;;;;;86.50;46.65;;;17.70;99.90;;;;;;5058988;28;20048;-64
2023/05/08 08:40:42;;;;;;;88.20;47.72;;;16.90;99.90;;;;;;5060128;28;20120;-69
2023/05/08 08:43:08;;;;;;;88.03;47.70;;;17.00;99.90;;;;;;5059955;28;20041;-68
2023/05/08 08:45:36;;;;;;;92.30;50.30;;;17.30;99.90;;;;;;5059629;28;20044;-66
2023/05/08 08:48:03;;;;;;;97.53;53.95;;;17.70;99.90;;;;;;5059569;28;20024;-69
2023/05/08 08:50:34;;;;;;;86.60;49.42;;;18.10;99.90;;;;;;5058902;28;20053;-65
2023/05/08 08:53:05;;;;;;;87.18;49.45;;;18.00;99.90;;;;;;5059361;28;20029;-68
2023/05/08 08:55:33;;;;;;;86.25;48.85;;;17.50;99.90;;;;;;5059705;28;20155;-69
2023/05/08 08:58:26;;;;;;;86.22;47.45;;;17.60;99.90;;;;;;5075155;28;20108;-68
2023/05/08 09:00:54;;;;;;;79.70;44.28;;;17.50;99.90;;;;;;5058587;28;20035;-67
2023/05/08 09:03:20;;;;;;;85.25;47.38;;;17.60;99.90;;;;;;5058385;28;20029;-65
2023/05/08 09:05:48;;;;;;;87.43;46.13;;;17.90;99.90;;;;;;5059903;28;20021;-66
2023/05/08 09:08:14;;;;;;;90.00;46.13;;;18.00;99.90;;;;;;5059291;28;20112;-64
2023/05/08 09:10:40;;;;;;;88.35;45.20;;;17.40;99.90;;;;;;5058518;28;20036;-62
2023/05/08 09:13:06;;;;;;;89.57;45.22;;;17.20;99.90;;;;;;5075490;28;20321;-62
2023/05/08 09:15:32;;;;;;;91.30;46.05;;;17.40;99.90;;;;;;5059184;28;20063;-63
2023/05/08 09:18:01;;;;;;;94.68;46.65;;;17.30;99.90;;;;;;5059381;28;20056;-62
2023/05/08 09:20:28;;;;;;;92.05;47.10;;;17.50;99.90;;;;;;5059536;28;20032;-62
2023/05/08 09:22:54;;;;;;;93.97;45.53;;;17.10;99.90;;;;;;5059009;28;20039;-61
2023/05/08 09:25:20;;;;;;;95.35;46.63;;;16.60;99.90;;;;;;5059514;28;20035;-58
2023/05/08 09:27:46;;;;;;;97.68;48.50;;;16.80;99.90;;;;;;5058824;28;20052;-58
2023/05/08 09:30:15;;;;;;;99.55;47.92;;;17.30;99.90;;;;;;5058853;28;20412;-59
2023/05/08 09:32:44;;;;;;;95.78;48.60;;;17.20;99.90;;;;;;5075154;28;20052;-65
2023/05/08 09:35:11;;;;;;;94.07;47.53;;;17.70;99.90;;;;;;5058826;28;20358;-63
2023/05/08 09:37:40;;;;;;;100.53;49.30;;;17.50;99.90;;;;;;5074641;28;20032;-63
2023/05/08 09:40:32;;;;;;;94.10;47.63;;;17.20;99.90;;;;;;5074700;28;20029;-60
2023/05/08 09:43:12;;;;;;;90.33;44.10;;;16.90;99.90;;;;;;5055137;28;20435;-59
2023/05/08 09:45:40;;;;;;;65.80;33.80;;;17.20;99.90;;;;;;5058500;28;20029;-59
2023/05/08 09:48:05;;;;;;;65.10;36.40;;;17.90;99.90;;;;;;5058008;28;20029;-58
2023/05/08 09:50:32;;;;;;;65.63;35.97;;;17.60;99.90;;;;;;5058610;28;20040;-62
2023/05/08 09:52:58;;;;;;;56.78;31.48;;;17.40;99.90;;;;;;5057717;28;20468;-63
2023/05/08 09:55:24;;;;;;;59.20;32.60;;;17.10;99.90;;;;;;5058665;28;20110;-59
2023/05/08 09:57:55;;;;;;;54.40;31.13;;;17.10;99.90;;;;;;5058207;28;20095;-60
2023/05/08 10:00:22;;;;;;;48.60;29.65;;;17.80;99.90;;;;;;5058302;28;20025;-62
2023/05/08 10:02:59;;;;;;;49.92;30.45;;;17.70;99.90;;;;;;5057649;28;20116;-61
2023/05/08 10:05:26;;;;;;;51.42;30.17;;;17.50;99.90;;;;;;5057461;28;20409;-65
2023/05/08 10:07:52;;;;;;;48.15;29.42;;;17.30;99.90;;;;;;5074149;28;20055;-61
2023/05/08 10:10:26;;;;;;;42.88;27.55;;;17.30;99.90;;;;;;5058221;28;20037;-62
2023/05/08 10:12:54;;;;;;;42.35;26.67;;;17.90;99.90;;;;;;5074499;28;20041;-59
2023/05/08 10:15:27;;;;;;;41.47;26.45;;;17.70;99.90;;;;;;5074022;28;20029;-62
2023/05/08 10:17:58;;;;;;;36.80;25.73;;;17.60;99.90;;;;;;5073966;28;20043;-62
2023/05/08 10:20:29;;;;;;;42.60;27.63;;;17.80;99.90;;;;;;5074017;28;20107;-63
2023/05/08 10:22:56;;;;;;;42.55;27.27;;;17.60;99.90;;;;;;5057243;28;20028;-63
2023/05/08 10:25:22;;;;;;;42.30;27.48;;;17.40;99.90;;;;;;5058318;28;20460;-65
2023/05/08 10:27:58;;;;;;;42.45;28.98;;;17.40;99.90;;;;;;5057655;28;20094;-63
2023/05/08 10:30:25;;;;;;;46.47;28.75;;;18.10;99.90;;;;;;5057921;28;20053;-63
2023/05/08 10:32:55;;;;;;;39.67;25.98;;;18.20;99.90;;;;;;5057185;28;20029;-64
2023/05/08 10:35:22;;;;;;;45.03;27.77;;;18.40;99.90;;;;;;5057167;28;20036;-62
2023/05/08 10:37:48;;;;;;;42.47;26.50;;;18.40;97.40;;;;;;5057836;28;20102;-63
2023/05/08 10:40:15;;;;;;;39.72;25.75;;;18.60;99.10;;;;;;5057719;28;20071;-63
2023/05/08 10:42:41;;;;;;;42.53;27.23;;;19.00;94.80;;;;;;5073604;28;20036;-63
2023/05/08 10:45:09;;;;;;;42.17;27.85;;;19.50;90.20;;;;;;5057657;28;20295;-62
2023/05/08 10:48:22;;;;;;;43.95;26.83;;;20.00;85.60;;;;;;5057502;28;20041;-66
2023/05/08 10:50:55;;;;;;;42.38;27.58;;;20.50;73.10;;;;;;5057259;28;20068;-61
2023/05/08 10:53:49;;;;;;;43.95;26.60;;;20.50;71.50;;;;;;5057615;28;20300;-61
2023/05/08 10:56:15;;;;;;;43.92;26.33;;;20.60;75.60;;;;;;5057610;28;20053;-61
2023/05/08 10:58:41;;;;;;;40.17;25.20;;;21.00;55.50;;;;;;5073063;28;20040;-62
2023/05/08 11:01:07;;;;;;;42.17;26.65;;;21.10;51.60;;;;;;5057110;28;20055;-61
2023/05/08 11:03:45;;;;;;;43.40;27.23;;;20.80;62.40;;;;;;5057167;28;20466;-63
2023/05/08 11:06:12;;;;;;;46.38;28.48;;;20.80;56.10;;;;;;5057131;28;20025;-62
2023/05/08 11:08:48;;;;;;;47.72;28.83;;;20.50;64.60;;;;;;5072961;28;20098;-61
2023/05/08 11:11:27;;;;;;;43.65;26.95;;;19.70;84.50;;;;;;5057110;28;20021;-62
2023/05/08 11:14:14;;;;;;;46.95;28.15;;;19.60;90.60;;;;;;5073058;28;20033;-64
2023/05/08 11:16:52;;;;;;;49.22;28.05;;;19.10;94.40;;;;;;5072912;28;20051;-61
2023/05/08 11:19:19;;;;;;;55.88;30.60;;;19.30;93.20;;;;;;5056966;28;20029;-64
2023/05/08 11:22:13;;;;;;;53.08;30.38;;;19.80;91.20;;;;;;5056271;28;20091;-62
2023/05/08 11:24:46;;;;;;;52.88;29.45;;;20.20;78.10;;;;;;5056892;28;20033;-63
2023/05/08 11:27:12;;;;;;;;;;;20.50;74.60;;;;;;5057642;28;20043;-62
2023/05/08 11:29:38;;;;;;;53.83;28.88;;;21.10;64.60;;;;;;5056803;28;19917;-62
2023/05/08 11:32:04;;;;;;;49.78;29.10;;;22.10;36.90;;;;;;5056817;28;20115;-63
2023/05/08 11:34:45;;;;;;;45.85;27.17;;;22.30;28.70;;;;;;5056763;28;20464;-62
2023/05/08 11:37:20;;;;;;;44.53;26.83;;;20.70;52.40;;;;;;5056682;28;20033;-61
2023/05/08 11:39:47;;;;;;;45.83;26.58;;;21.00;55.70;;;;;;5056087;28;20056;-62
2023/05/08 11:42:27;;;;;;;48.33;28.35;;;20.40;59.70;;;;;;5056810;28;20078;-65
2023/05/08 11:45:08;;;;;;;44.63;26.15;;;19.60;87.60;;;;;;5056829;28;20400;-66
2023/05/08 11:47:42;;;;;;;42.05;25.38;;;19.50;92.50;;;;;;5056749;28;20098;-62
2023/05/08 11:50:10;;;;;;;37.78;23.17;;;20.20;77.20;;;;;;5056722;28;20032;-67
2023/05/08 11:52:37;;;;;;;36.28;23.23;;;20.80;55.50;;;;;;5056987;28;20297;-63
2023/05/08 11:55:08;;;;;;;34.97;21.23;;;21.30;42.40;;;;;;5072620;28;20388;-62
2023/05/08 11:57:34;;;;;;;31.10;20.17;;;21.30;45.30;;;;;;5056531;28;20025;-62
2023/05/08 12:00:10;;;;;;;28.70;18.92;;;21.40;34.90;;;;;;5056635;28;20091;-61
2023/05/08 12:02:37;;;;;;;27.92;18.95;;;21.70;25.30;;;;;;5056784;28;20324;-62
2023/05/08 12:05:04;;;;;;;25.85;17.52;;;21.80;24.90;;;;;;5072257;28;20367;-63
2023/05/08 12:07:30;;;;;;;29.77;19.77;;;22.30;1.00;;;;;;5056406;28;20367;-63
2023/05/08 12:09:56;;;;;;;26.25;18.98;;;21.80;12.80;;;;;;5057426;28;20302;-67
2023/05/08 12:12:21;;;;;;;24.92;16.48;;;20.70;46.00;;;;;;5076183;28;20037;-62
2023/05/08 12:14:51;;;;;;;25.23;15.90;;;20.40;47.00;;;;;;5059535;28;20040;-65
2023/05/08 12:17:19;;;;;;;24.17;15.18;;;20.90;27.10;;;;;;5060135;28;20028;-61
2023/05/08 12:19:45;;;;;;;20.63;13.60;;;21.10;23.10;;;;;;5059456;28;20338;-66
2023/05/08 12:22:11;;;;;;;20.42;14.18;;;21.90;1.10;;;;;;5060637;28;20136;-60
2023/05/08 12:24:38;;;;;;;20.10;13.32;;;21.90;1.00;;;;;;5060089;28;20408;-64
2023/05/08 12:27:04;;;;;;;20.40;13.55;;;21.60;2.20;;;;;;5059721;28;20454;-64
2023/05/08 12:29:34;;;;;;;18.77;13.50;;;21.00;13.80;;;;;;5059383;28;20033;-63
2023/05/08 12:31:59;;;;;;;23.73;14.07;;;21.00;17.70;;;;;;5060454;28;20407;-65
2023/05/08 12:34:26;;;;;;;21.02;14.25;;;20.80;18.30;;;;;;5059330;28;20044;-63
2023/05/08 12:37:03;;;;;;;27.80;17.33;;;21.10;24.10;;;;;;5060291;28;20033;-63